createdAt,value
2022-10-18T00:00:00.666Z,95.07
2022-10-18T00:02:27.352Z,93.63
2022-10-18T00:04:53.971Z,92.02
2022-10-18T00:07:20.563Z,91.46
2022-10-18T00:09:47.158Z,92.23
2022-10-18T00:12:13.864Z,91.54
2022-10-18T00:14:40.430Z,92.04
2022-10-18T00:17:07.159Z,93.14
2022-10-18T00:19:33.711Z,92.62
2022-10-18T00:22:00.267Z,93.09
2022-10-18T00:24:26.845Z,93.70
2022-10-18T00:26:53.396Z,94.04
2022-10-18T00:29:20.018Z,95.66
2022-10-18T00:31:46.573Z,95.73
2022-10-18T00:34:15.547Z,96.57
2022-10-18T00:36:43.962Z,95.89
2022-10-18T00:39:17.546Z,96.84
2022-10-18T00:41:44.708Z,96.26
2022-10-18T00:44:11.224Z,96.19
2022-10-18T00:46:43.561Z,96.93
2022-10-18T00:49:18.948Z,95.77
2022-10-18T00:52:00.564Z,95.34
2022-10-18T00:54:29.958Z,95.29
2022-10-18T00:56:57.126Z,95.97
2022-10-18T00:59:24.686Z,94.87
2022-10-18T01:01:51.353Z,94.89
2022-10-18T01:04:19.406Z,94.55
2022-10-18T01:06:59.615Z,95.19
2022-10-18T01:09:41.599Z,95.05
2022-10-18T01:12:53.412Z,94.36
2022-10-18T01:15:23.054Z,93.74
2022-10-18T01:18:05.276Z,93.95
2022-10-18T01:20:59.790Z,94.86
2022-10-18T01:24:00.127Z,95.50
2022-10-18T01:26:52.939Z,95.78
2022-10-18T01:29:47.775Z,96.10
2022-10-18T01:32:19.769Z,95.44
2022-10-18T01:34:49.010Z,95.02
2022-10-18T01:37:19.988Z,95.23
2022-10-18T01:39:48.563Z,94.10
2022-10-18T01:42:20.283Z,93.93
2022-10-18T01:44:48.423Z,93.30
2022-10-18T01:47:16.827Z,92.89
2022-10-18T01:49:43.431Z,93.26
2022-10-18T01:52:14.300Z,92.81
2022-10-18T01:54:46.290Z,93.77
2022-10-18T01:57:36.989Z,94.24
2022-10-18T02:00:12.846Z,92.85
2022-10-18T02:03:05.665Z,93.64
2022-10-18T02:06:03.545Z,93.47
2022-10-18T02:08:44.033Z,94.23
2022-10-18T02:11:13.720Z,95.32
2022-10-18T02:13:49.660Z,94.83
2022-10-18T02:16:48.440Z,96.54
2022-10-18T02:21:54.729Z,96.70
2022-10-18T02:24:23.812Z,96.18
2022-10-18T02:26:50.586Z,96.67
2022-10-18T02:29:17.478Z,96.79
2022-10-18T02:31:46.592Z,97.80
2022-10-18T02:34:19.144Z,97.03
2022-10-18T02:36:52.974Z,96.89
2022-10-18T02:39:25.173Z,96.50
2022-10-18T02:41:54.372Z,96.23
2022-10-18T02:44:21.100Z,96.71
2022-10-18T02:46:48.174Z,96.00
2022-10-18T02:49:14.786Z,95.72
2022-10-18T02:51:41.639Z,96.26
2022-10-18T02:54:08.570Z,96.41
2022-10-18T02:56:35.785Z,95.77
2022-10-18T02:59:03.736Z,94.46
2022-10-18T03:01:30.469Z,92.05
2022-10-18T03:03:57.923Z,92.03
2022-10-18T03:06:24.498Z,91.26
2022-10-18T03:08:51.165Z,91.23
2022-10-18T03:11:17.797Z,91.54
2022-10-18T03:13:44.473Z,92.01
2022-10-18T03:16:11.958Z,92.04
2022-10-18T03:18:38.543Z,93.61
2022-10-18T03:21:06.989Z,93.62
2022-10-18T03:23:33.989Z,93.58
2022-10-18T03:26:00.790Z,93.84
2022-10-18T03:28:27.632Z,94.16
2022-10-18T03:30:59.199Z,96.74
2022-10-18T03:33:25.806Z,97.33
2022-10-18T03:35:52.350Z,98.50
2022-10-18T03:38:18.930Z,97.99
2022-10-18T03:40:45.513Z,98.20
2022-10-18T03:43:12.103Z,96.02
2022-10-18T03:45:38.688Z,96.92
2022-10-18T03:48:05.676Z,98.75
2022-10-18T03:50:32.276Z,99.53
2022-10-18T03:52:58.983Z,99.83
2022-10-18T03:55:25.679Z,100.00
2022-10-18T03:57:52.308Z,99.76
2022-10-18T04:00:18.905Z,98.92
2022-10-18T04:02:45.557Z,98.71
2022-10-18T04:05:13.022Z,99.28
2022-10-18T04:07:39.645Z,97.69
2022-10-18T04:10:07.102Z,95.92
2022-10-18T04:12:33.968Z,95.61
2022-10-18T04:15:00.778Z,95.15
2022-10-18T04:17:27.327Z,95.41
2022-10-18T04:19:53.946Z,95.66
2022-10-18T04:22:20.510Z,97.19
2022-10-18T04:24:47.121Z,97.77
2022-10-18T04:27:13.727Z,97.86
2022-10-18T04:29:40.384Z,98.44
2022-10-18T04:32:06.945Z,98.61
2022-10-18T04:34:33.582Z,98.71
2022-10-18T04:37:00.245Z,99.47
2022-10-18T04:39:26.931Z,100.00
2022-10-18T04:41:53.607Z,100.00
2022-10-18T04:44:20.166Z,100.00
2022-10-18T04:46:46.751Z,100.00
2022-10-18T04:49:13.384Z,100.00
2022-10-18T04:51:40.228Z,99.86
2022-10-18T04:54:06.834Z,100.00
2022-10-18T04:56:33.475Z,98.83
2022-10-18T04:59:00.086Z,94.50
2022-10-18T05:01:26.794Z,94.16
2022-10-18T05:03:54.533Z,91.95
2022-10-18T05:06:21.915Z,90.53
2022-10-18T05:08:49.420Z,91.27
2022-10-18T05:11:15.997Z,90.62
2022-10-18T05:13:44.945Z,90.30
2022-10-18T05:16:13.840Z,90.25
2022-10-18T05:18:40.523Z,90.43
2022-10-18T05:21:07.113Z,88.15
2022-10-18T05:23:33.801Z,91.47
2022-10-18T05:26:06.187Z,89.55
2022-10-18T05:28:39.270Z,89.46
2022-10-18T05:31:08.601Z,89.80
2022-10-18T05:33:35.515Z,89.09
2022-10-18T05:36:02.111Z,89.15
2022-10-18T05:38:31.038Z,88.08
2022-10-18T05:40:58.432Z,88.95
2022-10-18T05:43:28.873Z,90.46
2022-10-18T05:45:55.795Z,91.87
2022-10-18T05:48:22.753Z,92.14
2022-10-18T05:50:49.428Z,91.80
2022-10-18T05:53:35.621Z,89.11
2022-10-18T05:56:03.212Z,89.26
2022-10-18T05:58:29.823Z,88.43
2022-10-18T06:00:59.926Z,88.75
2022-10-18T06:03:27.724Z,87.74
2022-10-18T06:06:00.259Z,87.69
2022-10-18T06:08:27.287Z,87.89
2022-10-18T06:10:53.920Z,85.60
2022-10-18T06:13:20.460Z,85.11
2022-10-18T06:15:47.029Z,84.09
2022-10-18T06:18:13.583Z,84.01
2022-10-18T06:20:40.136Z,83.87
2022-10-18T06:23:06.908Z,80.87
2022-10-18T06:25:33.536Z,80.34
2022-10-18T06:28:00.079Z,79.15
2022-10-18T06:30:26.692Z,77.53
2022-10-18T06:32:53.338Z,77.25
2022-10-18T06:35:19.906Z,76.37
2022-10-18T06:37:46.463Z,75.98
2022-10-18T06:40:13.015Z,75.56
2022-10-18T06:42:40.323Z,75.45
2022-10-18T06:45:07.591Z,74.78
2022-10-18T06:47:34.215Z,74.35
2022-10-18T06:50:00.806Z,73.31
2022-10-18T06:52:27.378Z,73.81
2022-10-18T06:54:54.083Z,73.28
2022-10-18T06:57:21.650Z,72.76
2022-10-18T06:59:49.976Z,71.58
2022-10-18T07:02:17.501Z,70.91
2022-10-18T07:04:44.218Z,69.62
2022-10-18T07:07:10.922Z,68.24
2022-10-18T07:09:37.508Z,68.32
2022-10-18T07:12:04.383Z,66.85
2022-10-18T07:14:30.944Z,67.18
2022-10-18T07:17:00.720Z,65.97
2022-10-18T07:19:27.396Z,65.99
2022-10-18T07:21:53.963Z,65.77
2022-10-18T07:24:20.581Z,65.65
2022-10-18T07:26:47.219Z,65.27
2022-10-18T07:29:13.790Z,64.00
2022-10-18T07:31:41.095Z,63.86
2022-10-18T07:34:10.912Z,63.72
2022-10-18T07:36:37.588Z,62.36
2022-10-18T07:39:04.905Z,62.48
2022-10-18T07:41:33.648Z,62.83
2022-10-18T07:44:01.407Z,62.33
2022-10-18T07:46:28.051Z,62.63
2022-10-18T07:48:54.985Z,62.06
2022-10-18T07:51:22.284Z,61.29
2022-10-18T07:53:48.848Z,60.43
2022-10-18T07:56:20.618Z,59.61
2022-10-18T07:58:51.259Z,59.04
2022-10-18T08:01:19.155Z,59.60
2022-10-18T08:03:46.273Z,59.38
2022-10-18T08:06:15.172Z,58.43
2022-10-18T08:08:42.491Z,59.07
2022-10-18T08:11:15.657Z,59.05
2022-10-18T08:13:43.328Z,57.88
2022-10-18T08:16:17.725Z,57.23
2022-10-18T08:18:44.376Z,56.53
2022-10-18T08:21:13.183Z,55.60
2022-10-18T08:23:40.603Z,54.73
2022-10-18T08:26:10.555Z,51.98
2022-10-18T08:28:37.829Z,50.68
2022-10-18T08:31:06.595Z,49.66
2022-10-18T08:33:34.842Z,50.50
2022-10-18T08:36:07.482Z,50.53
2022-10-18T08:38:38.749Z,51.23
2022-10-18T08:41:36.724Z,51.18
2022-10-18T08:44:17.490Z,49.52
2022-10-18T08:46:50.155Z,48.35
2022-10-18T08:49:28.525Z,48.76
2022-10-18T08:51:57.000Z,48.87
2022-10-18T08:54:37.615Z,48.55
2022-10-18T08:57:13.043Z,46.96
2022-10-18T08:59:41.038Z,46.01
2022-10-18T09:02:26.888Z,46.04
2022-10-18T09:05:05.658Z,46.33
2022-10-18T09:08:09.797Z,44.63
2022-10-18T09:10:52.257Z,44.77
2022-10-18T09:13:31.195Z,43.71
2022-10-18T09:16:10.805Z,43.16
2022-10-18T09:19:02.683Z,42.04
2022-10-18T09:21:44.423Z,41.50
2022-10-18T09:24:22.348Z,38.91
2022-10-18T09:26:55.722Z,39.40
2022-10-18T09:29:40.400Z,38.09
2022-10-18T09:32:31.906Z,37.68
2022-10-18T09:35:13.865Z,36.07
2022-10-18T09:37:42.035Z,36.43
2022-10-18T09:40:19.039Z,36.22
2022-10-18T09:43:12.155Z,36.26
2022-10-18T09:45:44.817Z,36.16
2022-10-18T09:48:20.010Z,36.40
2022-10-18T09:50:53.832Z,36.63
2022-10-18T09:53:37.695Z,35.25
2022-10-18T09:56:10.235Z,35.42
2022-10-18T09:58:47.941Z,35.80
2022-10-18T10:01:19.810Z,35.49
2022-10-18T10:03:46.477Z,35.44
2022-10-18T10:06:13.144Z,35.40
2022-10-18T10:08:47.660Z,34.84
2022-10-18T10:11:35.076Z,34.84
2022-10-18T10:14:23.208Z,34.75
2022-10-18T10:17:02.282Z,34.79
2022-10-18T10:19:33.629Z,33.70
2022-10-18T10:22:07.342Z,33.02
2022-10-18T10:24:51.232Z,32.54
2022-10-18T10:27:20.637Z,33.02
2022-10-18T10:29:47.211Z,32.37
2022-10-18T10:32:22.224Z,32.39
2022-10-18T10:34:49.632Z,31.36
2022-10-18T10:37:25.296Z,32.24
2022-10-18T10:40:19.301Z,31.83
2022-10-18T10:43:38.891Z,32.55
2022-10-18T10:46:15.308Z,33.38
2022-10-18T10:48:41.829Z,33.48
2022-10-18T10:51:11.021Z,34.06
2022-10-18T10:53:43.253Z,32.78
2022-10-18T10:56:24.617Z,31.87
2022-10-18T10:58:52.281Z,31.67
2022-10-18T11:01:23.564Z,31.67
2022-10-18T11:03:53.284Z,32.05
2022-10-18T11:06:40.855Z,32.41
2022-10-18T11:09:19.506Z,32.08
2022-10-18T11:11:58.641Z,31.49
2022-10-18T11:14:30.376Z,31.43
2022-10-18T11:16:56.880Z,31.17
2022-10-18T11:19:53.288Z,31.13
2022-10-18T11:22:24.362Z,30.36
2022-10-18T11:24:51.028Z,29.50
2022-10-18T11:27:20.636Z,30.40
2022-10-18T11:30:08.861Z,30.42
2022-10-18T11:33:03.236Z,29.93
2022-10-18T11:35:32.615Z,30.18
2022-10-18T11:38:22.202Z,30.47
2022-10-18T11:41:30.489Z,30.89
2022-10-18T11:44:04.222Z,30.05
2022-10-18T11:46:42.960Z,30.13
2022-10-18T11:49:28.151Z,30.07
2022-10-18T11:52:27.525Z,29.89
2022-10-18T11:55:10.047Z,30.51
2022-10-18T11:57:58.364Z,29.93
2022-10-18T12:01:07.432Z,29.45
2022-10-18T12:03:57.971Z,29.53
2022-10-18T12:06:30.862Z,29.79
2022-10-18T12:09:02.105Z,29.39
2022-10-18T12:11:38.622Z,30.20
2022-10-18T12:14:14.930Z,29.97
2022-10-18T12:16:51.562Z,29.63
2022-10-18T12:19:26.706Z,30.00
2022-10-18T12:21:57.609Z,30.14
2022-10-18T12:24:30.337Z,30.45
2022-10-18T12:27:02.435Z,30.63
2022-10-18T12:29:32.023Z,29.44
2022-10-18T12:32:17.685Z,30.53
2022-10-18T12:34:52.267Z,30.46
2022-10-18T12:37:27.951Z,30.37
2022-10-18T12:40:10.536Z,30.49
2022-10-18T12:42:45.198Z,30.52
2022-10-18T12:45:35.523Z,30.44
2022-10-18T12:48:06.886Z,30.51
2022-10-18T12:50:44.307Z,30.56
2022-10-18T12:53:12.270Z,31.30
2022-10-18T12:55:41.065Z,30.83
2022-10-18T12:58:22.641Z,30.74
2022-10-18T13:00:49.194Z,30.73
2022-10-18T13:03:18.308Z,30.61
2022-10-18T13:05:53.561Z,30.42
2022-10-18T13:08:38.262Z,30.86
2022-10-18T13:11:07.851Z,30.10
2022-10-18T13:13:52.938Z,30.56
2022-10-18T13:16:22.752Z,30.53
2022-10-18T13:19:14.147Z,30.47
2022-10-18T13:21:54.971Z,30.55
2022-10-18T13:24:56.206Z,30.59
2022-10-18T13:27:37.079Z,30.53
2022-10-18T13:30:27.898Z,30.67
2022-10-18T13:33:23.535Z,30.58
2022-10-18T13:36:00.798Z,30.80
2022-10-18T13:38:30.828Z,30.53
2022-10-18T13:41:05.120Z,30.40
2022-10-18T13:43:56.810Z,30.57
2022-10-18T13:46:32.512Z,30.70
2022-10-18T13:49:14.733Z,31.03
2022-10-18T13:51:55.541Z,31.54
2022-10-18T13:54:42.287Z,31.36
2022-10-18T13:57:24.312Z,31.78
2022-10-18T14:00:12.721Z,31.81
2022-10-18T14:02:59.864Z,31.37
2022-10-18T14:05:49.108Z,30.85
2022-10-18T14:08:40.172Z,30.91
2022-10-18T14:11:47.577Z,30.59
2022-10-18T14:14:34.419Z,30.98
2022-10-18T14:17:19.959Z,31.39
2022-10-18T14:19:54.295Z,30.76
2022-10-18T14:22:33.271Z,31.49
2022-10-18T14:25:00.153Z,31.67
2022-10-18T14:27:29.183Z,31.69
2022-10-18T14:30:10.301Z,31.78
2022-10-18T14:32:37.072Z,31.64
2022-10-18T14:35:34.018Z,31.80
2022-10-18T14:37:52.946Z,32.14
2022-10-18T14:40:38.891Z,32.16
2022-10-18T14:43:14.769Z,32.56
2022-10-18T14:45:44.608Z,32.59
2022-10-18T14:48:21.951Z,32.66
2022-10-18T14:51:00.217Z,33.13
2022-10-18T14:53:36.262Z,33.67
2022-10-18T14:56:04.593Z,34.06
2022-10-18T14:58:32.052Z,34.42
2022-10-18T15:00:59.792Z,34.61
2022-10-18T15:03:28.392Z,34.70
2022-10-18T15:05:59.344Z,35.31
2022-10-18T15:08:51.563Z,37.06
2022-10-18T15:11:18.607Z,37.66
2022-10-18T15:13:53.515Z,38.71
2022-10-18T15:16:23.452Z,39.21
2022-10-18T15:19:15.789Z,39.63
2022-10-18T15:22:34.136Z,40.82
2022-10-18T15:25:14.754Z,41.54
2022-10-18T15:28:02.307Z,42.26
2022-10-18T15:30:38.624Z,43.43
2022-10-18T15:33:10.523Z,44.19
2022-10-18T15:35:38.677Z,44.41
2022-10-18T15:38:16.091Z,45.23
2022-10-18T15:40:43.796Z,45.21
2022-10-18T15:43:25.781Z,45.45
2022-10-18T15:46:01.588Z,46.30
2022-10-18T15:48:35.454Z,46.83
2022-10-18T15:51:19.570Z,46.89
2022-10-18T15:53:53.158Z,47.42
2022-10-18T15:56:35.889Z,47.62
2022-10-18T15:59:06.810Z,48.19
2022-10-18T16:01:42.782Z,48.30
2022-10-18T16:04:18.909Z,48.75
2022-10-18T16:06:45.880Z,49.32
2022-10-18T16:09:18.301Z,50.27
2022-10-18T16:11:45.408Z,50.75
2022-10-18T16:14:12.147Z,51.13
2022-10-18T16:16:40.252Z,51.67
2022-10-18T16:19:07.568Z,52.17
2022-10-18T16:21:37.401Z,52.81
2022-10-18T16:24:04.704Z,53.17
2022-10-18T16:26:31.864Z,53.36
2022-10-18T16:28:59.051Z,54.00
2022-10-18T16:32:01.629Z,54.88
2022-10-18T16:34:28.375Z,55.58
2022-10-18T16:36:55.396Z,57.66
2022-10-18T16:39:22.925Z,57.53
2022-10-18T16:41:49.845Z,56.74
2022-10-18T16:44:17.209Z,57.24
2022-10-18T16:46:44.269Z,58.14
2022-10-18T16:49:25.303Z,60.25
2022-10-18T16:51:53.571Z,60.20
2022-10-18T16:54:20.408Z,59.93
2022-10-18T16:56:47.853Z,60.75
2022-10-18T16:59:26.854Z,61.34
2022-10-18T17:01:53.728Z,60.79
2022-10-18T17:04:20.480Z,60.70
2022-10-18T17:06:49.016Z,61.66
2022-10-18T17:09:16.471Z,60.60
2022-10-18T17:11:43.202Z,59.81
2022-10-18T17:14:09.813Z,59.38
2022-10-18T17:16:38.876Z,60.16
2022-10-18T17:19:08.068Z,60.34
2022-10-18T17:21:35.319Z,60.78
2022-10-18T17:24:03.263Z,61.56
2022-10-18T17:26:30.630Z,61.80
2022-10-18T17:29:03.945Z,62.05
2022-10-18T17:31:32.289Z,62.68
2022-10-18T17:34:01.561Z,63.19
2022-10-18T17:36:29.824Z,64.15
2022-10-18T17:38:56.595Z,64.58
2022-10-18T17:41:23.343Z,64.89
2022-10-18T17:43:49.988Z,65.11
2022-10-18T17:46:17.874Z,65.55
2022-10-18T17:48:44.678Z,66.23
2022-10-18T17:51:14.874Z,66.45
2022-10-18T17:53:41.523Z,66.91
2022-10-18T17:56:09.349Z,67.46
2022-10-18T17:58:36.118Z,67.05
2022-10-18T18:01:28.946Z,67.77
2022-10-18T18:03:57.313Z,68.02
2022-10-18T18:06:37.411Z,68.83
2022-10-18T18:09:10.853Z,70.21
2022-10-18T18:11:38.315Z,70.33
2022-10-18T18:14:09.025Z,71.10
2022-10-18T18:16:41.483Z,71.66
2022-10-18T18:19:09.946Z,72.77
2022-10-18T18:21:37.260Z,72.74
2022-10-18T18:24:04.518Z,72.48
2022-10-18T18:26:32.869Z,72.52
2022-10-18T18:29:00.113Z,72.38
2022-10-18T18:31:30.711Z,71.79
2022-10-18T18:34:01.008Z,72.40
2022-10-18T18:36:32.567Z,72.87
2022-10-18T18:38:59.529Z,73.28
2022-10-18T18:41:27.988Z,73.58
2022-10-18T18:44:02.115Z,73.64
2022-10-18T18:46:33.174Z,73.75
2022-10-18T18:49:00.217Z,73.90
2022-10-18T18:51:26.913Z,73.53
2022-10-18T18:53:53.840Z,73.46
2022-10-18T18:56:23.557Z,73.33
2022-10-18T18:58:52.161Z,73.53
2022-10-18T19:01:27.469Z,73.09
2022-10-18T19:03:56.132Z,73.59
2022-10-18T19:06:25.428Z,74.53
2022-10-18T19:09:00.837Z,74.76
2022-10-18T19:11:31.263Z,74.96
2022-10-18T19:13:58.731Z,75.58
2022-10-18T19:16:26.809Z,75.79
2022-10-18T19:19:12.784Z,76.34
2022-10-18T19:21:45.523Z,77.36
2022-10-18T19:24:13.055Z,77.47
2022-10-18T19:26:44.850Z,78.14
2022-10-18T19:29:22.246Z,79.53
2022-10-18T19:31:52.726Z,79.50
2022-10-18T19:34:20.610Z,79.61
2022-10-18T19:36:48.791Z,78.83
2022-10-18T19:39:24.388Z,78.93
2022-10-18T19:41:56.706Z,79.78
2022-10-18T19:44:25.202Z,80.13
2022-10-18T19:46:51.893Z,80.30
2022-10-18T19:49:18.562Z,80.65
2022-10-18T19:51:45.428Z,81.08
2022-10-18T19:54:13.215Z,80.89
2022-10-18T19:56:41.757Z,80.05
2022-10-18T19:59:09.370Z,79.89
2022-10-18T20:01:36.235Z,79.69
2022-10-18T20:04:07.294Z,80.14
2022-10-18T20:06:34.805Z,80.06
2022-10-18T20:09:01.814Z,81.51
2022-10-18T20:11:29.449Z,81.40
2022-10-18T20:13:56.727Z,81.69
2022-10-18T20:16:28.366Z,83.45
2022-10-18T20:18:57.300Z,83.66
2022-10-18T20:21:24.044Z,83.83
2022-10-18T20:23:50.628Z,84.21
2022-10-18T20:26:20.802Z,84.07
2022-10-18T20:28:57.382Z,84.54
2022-10-18T20:31:27.187Z,83.83
2022-10-18T20:33:58.777Z,83.99
2022-10-18T20:36:27.347Z,84.43
2022-10-18T20:38:54.928Z,85.04
2022-10-18T20:41:25.013Z,85.11
2022-10-18T20:43:53.659Z,85.34
2022-10-18T20:46:20.784Z,84.96
2022-10-18T20:48:48.766Z,85.49
2022-10-18T20:51:17.011Z,84.73
2022-10-18T20:53:43.767Z,83.87
2022-10-18T20:56:13.319Z,83.13
2022-10-18T20:58:41.743Z,83.69
2022-10-18T21:01:11.157Z,83.59
2022-10-18T21:03:39.671Z,83.47
2022-10-18T21:06:13.691Z,84.00
2022-10-18T21:08:40.398Z,83.79
2022-10-18T21:11:07.510Z,84.11
2022-10-18T21:13:34.628Z,84.51
2022-10-18T21:16:02.398Z,85.74
2022-10-18T21:18:31.733Z,85.31
2022-10-18T21:21:16.046Z,86.02
2022-10-18T21:23:42.765Z,85.96
2022-10-18T21:26:15.971Z,86.07
2022-10-18T21:28:43.048Z,85.39
2022-10-18T21:31:12.767Z,86.14
2022-10-18T21:33:41.005Z,86.88
2022-10-18T21:36:08.048Z,87.76
2022-10-18T21:38:34.702Z,88.54
2022-10-18T21:41:01.741Z,89.23
2022-10-18T21:43:28.483Z,88.58
2022-10-18T21:46:00.044Z,88.78
2022-10-18T21:48:27.689Z,88.00
2022-10-18T21:50:54.877Z,89.67
2022-10-18T21:53:21.901Z,89.93
2022-10-18T21:55:49.069Z,91.50
2022-10-18T21:58:15.636Z,91.93
2022-10-18T22:00:42.265Z,91.64
2022-10-18T22:03:13.761Z,90.65
2022-10-18T22:05:40.408Z,91.33
2022-10-18T22:08:07.554Z,91.82
2022-10-18T22:10:34.209Z,92.65
2022-10-18T22:13:01.457Z,92.70
2022-10-18T22:15:28.095Z,92.17
2022-10-18T22:17:54.708Z,91.41
2022-10-18T22:20:21.284Z,90.59
2022-10-18T22:22:47.843Z,88.99
2022-10-18T22:25:14.460Z,88.45
2022-10-18T22:27:41.243Z,89.08
2022-10-18T22:30:08.310Z,89.84
2022-10-18T22:32:34.860Z,92.16
2022-10-18T22:35:01.449Z,92.72
2022-10-18T22:37:28.072Z,93.31
2022-10-18T22:39:54.648Z,94.19
2022-10-18T22:42:21.339Z,94.40
2022-10-18T22:44:47.955Z,93.68
2022-10-18T22:47:14.580Z,93.16
2022-10-18T22:49:41.230Z,94.13
2022-10-18T22:52:07.822Z,93.94
2022-10-18T22:54:34.413Z,94.72
2022-10-18T22:57:01.020Z,94.56
2022-10-18T22:59:27.602Z,95.01
2022-10-18T23:01:54.160Z,94.33
2022-10-18T23:04:20.759Z,94.65
2022-10-18T23:06:47.400Z,95.60
2022-10-18T23:09:14.064Z,95.13
2022-10-18T23:11:40.688Z,95.23
2022-10-18T23:14:07.721Z,96.03
2022-10-18T23:16:34.654Z,95.44
2022-10-18T23:19:01.309Z,95.23
2022-10-18T23:21:28.837Z,95.26
2022-10-18T23:23:56.713Z,94.02
2022-10-18T23:26:26.178Z,93.54
2022-10-18T23:28:54.204Z,93.42
2022-10-18T23:31:23.973Z,95.06
2022-10-18T23:33:52.782Z,95.31
2022-10-18T23:36:19.583Z,95.36
2022-10-18T23:38:46.258Z,95.56
2022-10-18T23:41:14.748Z,96.54
2022-10-18T23:43:42.105Z,96.71
2022-10-18T23:46:09.660Z,96.81
2022-10-18T23:48:36.719Z,97.90
2022-10-18T23:51:03.875Z,97.65
2022-10-18T23:53:31.113Z,97.87
2022-10-18T23:55:57.710Z,97.29
2022-10-18T23:58:25.322Z,95.10
